sensor_id;sensor_type;location;lat;lon;timestamp;pressure;altitude;pressure_sealevel;temperature;humidity
8581;BME280;4328;48.622;9.230;2024-03-02T00:01:14;96875.41;;;3.82;100.00
8581;BME280;4328;48.622;9.230;2024-03-02T00:03:42;96872.06;;;3.80;100.00
8581;BME280;4328;48.622;9.230;2024-03-02T00:06:09;96878.25;;;3.81;100.00
8581;BME280;4328;48.622;9.230;2024-03-02T00:08:37;96888.31;;;3.87;100.00
8581;BME280;4328;48.622;9.230;2024-03-02T00:11:04;96877.59;;;3.87;100.00
8581;BME280;4328;48.622;9.230;2024-03-02T00:13:30;96885.06;;;3.91;100.00
8581;BME280;4328;48.622;9.230;2024-03-02T00:15:58;96877.59;;;3.87;100.00
8581;BME280;4328;48.622;9.230;2024-03-02T00:18:27;96884.91;;;3.93;100.00
8581;BME280;4328;48.622;9.230;2024-03-02T00:20:57;96887.25;;;3.96;100.00
8581;BME280;4328;48.622;9.230;2024-03-02T00:23:27;96886.06;;;3.98;100.00
8581;BME280;4328;48.622;9.230;2024-03-02T00:25:55;96884.78;;;3.86;100.00
8581;BME280;4328;48.622;9.230;2024-03-02T00:28:24;96897.34;;;3.86;100.00
8581;BME280;4328;48.622;9.230;2024-03-02T00:30:56;96897.34;;;3.86;100.00
8581;BME280;4328;48.622;9.230;2024-03-02T00:33:25;96897.34;;;3.86;100.00
8581;BME280;4328;48.622;9.230;2024-03-02T00:35:53;96896.34;;;3.87;100.00
8581;BME280;4328;48.622;9.230;2024-03-02T00:38:19;96907.75;;;3.89;100.00
8581;BME280;4328;48.622;9.230;2024-03-02T00:40:46;96903.38;;;3.88;100.00
8581;BME280;4328;48.622;9.230;2024-03-02T00:46:07;96898.41;;;3.77;100.00
8581;BME280;4328;48.622;9.230;2024-03-02T00:48:33;96899.25;;;3.77;100.00
8581;BME280;4328;48.622;9.230;2024-03-02T00:51:01;96894.69;;;3.78;100.00
8581;BME280;4328;48.622;9.230;2024-03-02T00:53:29;96899.72;;;3.81;100.00
8581;BME280;4328;48.622;9.230;2024-03-02T00:55:56;96897.09;;;3.73;100.00
8581;BME280;4328;48.622;9.230;2024-03-02T00:58:25;96893.88;;;3.77;100.00
8581;BME280;4328;48.622;9.230;2024-03-02T01:00:51;96893.41;;;3.74;100.00
8581;BME280;4328;48.622;9.230;2024-03-02T01:03:18;96819.06;;;3.29;100.00
8581;BME280;4328;48.622;9.230;2024-03-02T01:05:45;96888.03;;;3.74;100.00
8581;BME280;4328;48.622;9.230;2024-03-02T01:08:11;96881.66;;;3.75;100.00
8581;BME280;4328;48.622;9.230;2024-03-02T01:10:38;96885.34;;;3.74;100.00
8581;BME280;4328;48.622;9.230;2024-03-02T01:13:05;96890.38;;;3.77;100.00
8581;BME280;4328;48.622;9.230;2024-03-02T01:15:33;96886.66;;;3.78;100.00
8581;BME280;4328;48.622;9.230;2024-03-02T01:17:59;96888.69;;;3.76;100.00
8581;BME280;4328;48.622;9.230;2024-03-02T01:20:26;96891.56;;;3.74;100.00
8581;BME280;4328;48.622;9.230;2024-03-02T01:22:53;96890.53;;;3.75;100.00
8581;BME280;4328;48.622;9.230;2024-03-02T01:25:20;96892.72;;;3.72;100.00
8581;BME280;4328;48.622;9.230;2024-03-02T01:27:47;96893.06;;;3.69;100.00
8581;BME280;4328;48.622;9.230;2024-03-02T01:30:14;96889.44;;;3.61;100.00
8581;BME280;4328;48.622;9.230;2024-03-02T01:32:42;96881.22;;;3.63;100.00
8581;BME280;4328;48.622;9.230;2024-03-02T01:35:08;96880.72;;;3.59;100.00
8581;BME280;4328;48.622;9.230;2024-03-02T01:37:35;96877.91;;;3.53;100.00
8581;BME280;4328;48.622;9.230;2024-03-02T01:40:01;96882.44;;;3.52;100.00
8581;BME280;4328;48.622;9.230;2024-03-02T01:42:33;96883.28;;;3.53;100.00
8581;BME280;4328;48.622;9.230;2024-03-02T01:45:00;96882.94;;;3.48;100.00
8581;BME280;4328;48.622;9.230;2024-03-02T01:47:27;96879.47;;;3.39;100.00
8581;BME280;4328;48.622;9.230;2024-03-02T01:49:55;96878.13;;;3.35;100.00
8581;BME280;4328;48.622;9.230;2024-03-02T01:52:22;96877.50;;;3.25;100.00
8581;BME280;4328;48.622;9.230;2024-03-02T01:54:48;96877.53;;;3.17;100.00
8581;BME280;4328;48.622;9.230;2024-03-02T01:57:15;96878.53;;;3.16;100.00
8581;BME280;4328;48.622;9.230;2024-03-02T01:59:42;96872.00;;;3.10;100.00
8581;BME280;4328;48.622;9.230;2024-03-02T02:02:08;96877.69;;;3.07;100.00
8581;BME280;4328;48.622;9.230;2024-03-02T02:04:35;96878.22;;;3.03;100.00
8581;BME280;4328;48.622;9.230;2024-03-02T02:07:03;96872.38;;;2.99;100.00
8581;BME280;4328;48.622;9.230;2024-03-02T02:09:29;96873.25;;;2.92;100.00
8581;BME280;4328;48.622;9.230;2024-03-02T02:11:56;96868.22;;;2.88;100.00
8581;BME280;4328;48.622;9.230;2024-03-02T02:14:23;96875.25;;;2.81;100.00
8581;BME280;4328;48.622;9.230;2024-03-02T02:16:49;96864.06;;;2.78;100.00
8581;BME280;4328;48.622;9.230;2024-03-02T02:19:17;96875.25;;;2.73;100.00
8581;BME280;4328;48.622;9.230;2024-03-02T02:21:45;96869.91;;;2.73;100.00
8581;BME280;4328;48.622;9.230;2024-03-02T02:24:12;96862.22;;;2.62;100.00
8581;BME280;4328;48.622;9.230;2024-03-02T02:26:38;96860.75;;;2.60;100.00
8581;BME280;4328;48.622;9.230;2024-03-02T02:29:05;96859.41;;;2.56;100.00
8581;BME280;4328;48.622;9.230;2024-03-02T02:31:36;96863.75;;;2.57;100.00
8581;BME280;4328;48.622;9.230;2024-03-02T02:34:03;96872.59;;;2.49;100.00
8581;BME280;4328;48.622;9.230;2024-03-02T02:36:30;96869.44;;;2.45;100.00
8581;BME280;4328;48.622;9.230;2024-03-02T02:38:59;96868.25;;;2.40;100.00
8581;BME280;4328;48.622;9.230;2024-03-02T02:41:28;96859.25;;;2.33;100.00
8581;BME280;4328;48.622;9.230;2024-03-02T02:43:55;96856.22;;;2.28;100.00
8581;BME280;4328;48.622;9.230;2024-03-02T02:46:22;96848.72;;;2.23;100.00
8581;BME280;4328;48.622;9.230;2024-03-02T02:48:48;96835.16;;;2.16;100.00
8581;BME280;4328;48.622;9.230;2024-03-02T02:51:16;96799.06;;;2.04;100.00
8581;BME280;4328;48.622;9.230;2024-03-02T02:53:43;96854.56;;;2.35;100.00
8581;BME280;4328;48.622;9.230;2024-03-02T02:56:11;96842.50;;;2.39;100.00
8581;BME280;4328;48.622;9.230;2024-03-02T02:58:39;96827.16;;;2.33;100.00
8581;BME280;4328;48.622;9.230;2024-03-02T03:01:06;96762.81;;;1.94;100.00
8581;BME280;4328;48.622;9.230;2024-03-02T03:03:32;96853.56;;;2.36;100.00
8581;BME280;4328;48.622;9.230;2024-03-02T03:05:59;96822.78;;;2.15;100.00
8581;BME280;4328;48.622;9.230;2024-03-02T03:08:25;96851.19;;;2.25;100.00
8581;BME280;4328;48.622;9.230;2024-03-02T03:10:52;96846.53;;;2.18;100.00
8581;BME280;4328;48.622;9.230;2024-03-02T03:13:20;96846.38;;;2.12;100.00
8581;BME280;4328;48.622;9.230;2024-03-02T03:15:47;96842.66;;;2.05;100.00
8581;BME280;4328;48.622;9.230;2024-03-02T03:18:13;96851.69;;;1.96;100.00
8581;BME280;4328;48.622;9.230;2024-03-02T03:20:40;96852.31;;;1.90;100.00
8581;BME280;4328;48.622;9.230;2024-03-02T03:23:06;96859.19;;;1.84;100.00
8581;BME280;4328;48.622;9.230;2024-03-02T03:25:34;96853.31;;;1.80;100.00
8581;BME280;4328;48.622;9.230;2024-03-02T03:28:00;96864.16;;;1.79;100.00
8581;BME280;4328;48.622;9.230;2024-03-02T03:30:29;96861.84;;;1.76;100.00
8581;BME280;4328;48.622;9.230;2024-03-02T03:32:56;96860.31;;;1.73;100.00
8581;BME280;4328;48.622;9.230;2024-03-02T03:35:22;96861.13;;;1.66;100.00
8581;BME280;4328;48.622;9.230;2024-03-02T03:37:49;96852.78;;;1.61;100.00
8581;BME280;4328;48.622;9.230;2024-03-02T03:40:16;96864.47;;;1.60;100.00
8581;BME280;4328;48.622;9.230;2024-03-02T03:42:43;96849.41;;;1.51;100.00
8581;BME280;4328;48.622;9.230;2024-03-02T03:45:10;96782.50;;;1.02;100.00
8581;BME280;4328;48.622;9.230;2024-03-02T03:47:38;96850.41;;;1.50;100.00
8581;BME280;4328;48.622;9.230;2024-03-02T03:50:05;96856.06;;;1.47;100.00
8581;BME280;4328;48.622;9.230;2024-03-02T03:52:32;96863.75;;;1.41;100.00
8581;BME280;4328;48.622;9.230;2024-03-02T03:54:59;96858.03;;;1.36;100.00
8581;BME280;4328;48.622;9.230;2024-03-02T03:57:25;96854.53;;;1.36;100.00
8581;BME280;4328;48.622;9.230;2024-03-02T03:59:52;96850.66;;;1.30;100.00
8581;BME280;4328;48.622;9.230;2024-03-02T04:02:19;96855.81;;;1.24;100.00
8581;BME280;4328;48.622;9.230;2024-03-02T04:04:47;96864.81;;;1.23;100.00
8581;BME280;4328;48.622;9.230;2024-03-02T04:07:14;96855.13;;;1.22;100.00
8581;BME280;4328;48.622;9.230;2024-03-02T04:09:40;96842.72;;;1.04;100.00
8581;BME280;4328;48.622;9.230;2024-03-02T04:12:07;96861.16;;;1.24;100.00
8581;BME280;4328;48.622;9.230;2024-03-02T04:14:34;96859.63;;;1.21;100.00
8581;BME280;4328;48.622;9.230;2024-03-02T04:17:00;96870.28;;;1.13;100.00
8581;BME280;4328;48.622;9.230;2024-03-02T04:19:27;96870.28;;;1.13;100.00
8581;BME280;4328;48.622;9.230;2024-03-02T04:21:55;96861.91;;;1.08;100.00
8581;BME280;4328;48.622;9.230;2024-03-02T04:24:21;96871.94;;;1.06;100.00
8581;BME280;4328;48.622;9.230;2024-03-02T04:26:48;96870.41;;;1.03;100.00
8581;BME280;4328;48.622;9.230;2024-03-02T04:29:15;96866.53;;;0.98;100.00
8581;BME280;4328;48.622;9.230;2024-03-02T04:31:41;96864.13;;;0.87;100.00
8581;BME280;4328;48.622;9.230;2024-03-02T04:34:08;96871.09;;;0.80;100.00
8581;BME280;4328;48.622;9.230;2024-03-02T04:36:35;96869.78;;;0.84;100.00
8581;BME280;4328;48.622;9.230;2024-03-02T04:39:03;96865.97;;;0.86;100.00
8581;BME280;4328;48.622;9.230;2024-03-02T04:41:30;96870.94;;;0.81;100.00
8581;BME280;4328;48.622;9.230;2024-03-02T04:43:57;96873.91;;;0.78;100.00
8581;BME280;4328;48.622;9.230;2024-03-02T04:46:23;96867.06;;;0.76;100.00
8581;BME280;4328;48.622;9.230;2024-03-02T04:48:50;96870.41;;;0.78;100.00
8581;BME280;4328;48.622;9.230;2024-03-02T04:51:20;96869.19;;;0.72;100.00
8581;BME280;4328;48.622;9.230;2024-03-02T04:53:47;96874.03;;;0.68;100.00
8581;BME280;4328;48.622;9.230;2024-03-02T04:56:15;96863.03;;;0.71;100.00
8581;BME280;4328;48.622;9.230;2024-03-02T04:58:55;96867.22;;;0.74;100.00
8581;BME280;4328;48.622;9.230;2024-03-02T05:01:22;96848.97;;;0.61;100.00
8581;BME280;4328;48.622;9.230;2024-03-02T05:03:49;96867.69;;;0.69;100.00
8581;BME280;4328;48.622;9.230;2024-03-02T05:06:15;96871.97;;;0.62;100.00
8581;BME280;4328;48.622;9.230;2024-03-02T05:08:42;96868.63;;;0.60;100.00
8581;BME280;4328;48.622;9.230;2024-03-02T05:11:10;96864.91;;;0.53;100.00
8581;BME280;4328;48.622;9.230;2024-03-02T05:14:06;96867.59;;;0.53;100.00
8581;BME280;4328;48.622;9.230;2024-03-02T05:16:32;96868.56;;;0.52;100.00
8581;BME280;4328;48.622;9.230;2024-03-02T05:18:59;96872.38;;;0.50;100.00
8581;BME280;4328;48.622;9.230;2024-03-02T05:21:26;96864.72;;;0.47;100.00
8581;BME280;4328;48.622;9.230;2024-03-02T05:23:52;96876.56;;;0.52;100.00
8581;BME280;4328;48.622;9.230;2024-03-02T05:26:19;96877.41;;;0.53;100.00
8581;BME280;4328;48.622;9.230;2024-03-02T05:28:45;96880.22;;;0.51;100.00
8581;BME280;4328;48.622;9.230;2024-03-02T05:31:15;96878.09;;;0.55;100.00
8581;BME280;4328;48.622;9.230;2024-03-02T05:33:42;96883.19;;;0.48;100.00
8581;BME280;4328;48.622;9.230;2024-03-02T05:36:09;96885.56;;;0.51;100.00
8581;BME280;4328;48.622;9.230;2024-03-02T05:38:35;96884.22;;;0.47;100.00
8581;BME280;4328;48.622;9.230;2024-03-02T05:41:02;96880.03;;;0.45;100.00
8581;BME280;4328;48.622;9.230;2024-03-02T05:43:30;96886.88;;;0.47;100.00
8581;BME280;4328;48.622;9.230;2024-03-02T05:45:56;96879.19;;;0.44;100.00
8581;BME280;4328;48.622;9.230;2024-03-02T05:48:24;96884.22;;;0.47;100.00
8581;BME280;4328;48.622;9.230;2024-03-02T05:50:51;96876.66;;;0.43;100.00
8581;BME280;4328;48.622;9.230;2024-03-02T05:53:17;96871.50;;;0.41;100.00
8581;BME280;4328;48.622;9.230;2024-03-02T05:55:44;96878.94;;;0.38;100.00
8581;BME280;4328;48.622;9.230;2024-03-02T05:58:11;96879.78;;;0.38;100.00
8581;BME280;4328;48.622;9.230;2024-03-02T06:00:56;96880.63;;;0.39;100.00
8581;BME280;4328;48.622;9.230;2024-03-02T06:03:24;96890.16;;;0.41;100.00
8581;BME280;4328;48.622;9.230;2024-03-02T06:05:51;96894.78;;;0.39;100.00
8581;BME280;4328;48.622;9.230;2024-03-02T06:08:17;96849.91;;;0.09;100.00
8581;BME280;4328;48.622;9.230;2024-03-02T06:10:44;96893.97;;;0.39;100.00
8581;BME280;4328;48.622;9.230;2024-03-02T06:13:11;96895.34;;;0.43;100.00
8581;BME280;4328;48.622;9.230;2024-03-02T06:15:37;96899.97;;;0.41;100.00
8581;BME280;4328;48.622;9.230;2024-03-02T06:18:04;96905.00;;;0.44;100.00
8581;BME280;4328;48.622;9.230;2024-03-02T06:20:33;96895.03;;;0.46;100.00
8581;BME280;4328;48.622;9.230;2024-03-02T06:23:00;96892.03;;;0.49;100.00
8581;BME280;4328;48.622;9.230;2024-03-02T06:25:27;96896.63;;;0.56;100.00
8581;BME280;4328;48.622;9.230;2024-03-02T06:27:53;96894.53;;;0.68;100.00
8581;BME280;4328;48.622;9.230;2024-03-02T06:30:19;96898.63;;;0.80;100.00
8581;BME280;4328;48.622;9.230;2024-03-02T06:32:45;96897.13;;;0.86;100.00
8581;BME280;4328;48.622;9.230;2024-03-02T06:35:12;96901.59;;;1.03;100.00
8581;BME280;4328;48.622;9.230;2024-03-02T06:37:40;96899.19;;;1.18;100.00
8581;BME280;4328;48.622;9.230;2024-03-02T06:40:07;96908.25;;;1.33;100.00
8581;BME280;4328;48.622;9.230;2024-03-02T06:42:34;96593.84;;;-0.40;100.00
8581;BME280;4328;48.622;9.230;2024-03-02T06:45:01;96904.22;;;1.71;100.00
8581;BME280;4328;48.622;9.230;2024-03-02T06:47:28;96910.47;;;1.88;100.00
8581;BME280;4328;48.622;9.230;2024-03-02T06:49:54;96918.03;;;2.08;100.00
8581;BME280;4328;48.622;9.230;2024-03-02T06:52:22;96920.72;;;2.25;100.00
8581;BME280;4328;48.622;9.230;2024-03-02T06:54:50;96906.69;;;2.39;100.00
8581;BME280;4328;48.622;9.230;2024-03-02T06:57:17;96911.75;;;2.58;100.00
8581;BME280;4328;48.622;9.230;2024-03-02T06:59:45;96912.41;;;2.68;100.00
8581;BME280;4328;48.622;9.230;2024-03-02T07:02:12;96914.06;;;2.85;100.00
8581;BME280;4328;48.622;9.230;2024-03-02T07:04:38;96909.03;;;3.07;100.00
8581;BME280;4328;48.622;9.230;2024-03-02T07:07:05;96911.31;;;3.26;100.00
8581;BME280;4328;48.622;9.230;2024-03-02T07:09:32;96912.94;;;3.43;100.00
8581;BME280;4328;48.622;9.230;2024-03-02T07:11:59;96834.97;;;3.22;100.00
8581;BME280;4328;48.622;9.230;2024-03-02T07:14:26;96901.72;;;3.79;100.00
8581;BME280;4328;48.622;9.230;2024-03-02T07:17:13;96903.00;;;3.99;100.00
8581;BME280;4328;48.622;9.230;2024-03-02T07:19:39;96900.03;;;4.40;100.00
8581;BME280;4328;48.622;9.230;2024-03-02T07:22:06;96902.47;;;4.72;100.00
8581;BME280;4328;48.622;9.230;2024-03-02T07:24:39;96907.63;;;4.96;96.37
8581;BME280;4328;48.622;9.230;2024-03-02T07:27:08;96898.88;;;5.17;94.61
8581;BME280;4328;48.622;9.230;2024-03-02T07:29:35;96893.59;;;5.53;95.98
8581;BME280;4328;48.622;9.230;2024-03-02T07:32:01;96897.41;;;5.88;91.57
8581;BME280;4328;48.622;9.230;2024-03-02T07:34:28;96896.53;;;6.38;93.59
8581;BME280;4328;48.622;9.230;2024-03-02T07:36:55;96898.78;;;6.56;88.64
8581;BME280;4328;48.622;9.230;2024-03-02T07:39:21;96902.88;;;6.52;84.70
8581;BME280;4328;48.622;9.230;2024-03-02T07:41:48;96900.13;;;6.45;81.50
8581;BME280;4328;48.622;9.230;2024-03-02T07:44:16;96874.47;;;6.28;79.66
8581;BME280;4328;48.622;9.230;2024-03-02T07:46:44;96897.69;;;6.29;78.85
8581;BME280;4328;48.622;9.230;2024-03-02T07:49:12;96892.41;;;6.21;78.52
8581;BME280;4328;48.622;9.230;2024-03-02T07:51:39;96906.38;;;6.10;77.59
8581;BME280;4328;48.622;9.230;2024-03-02T07:54:06;96902.50;;;5.98;77.20
8581;BME280;4328;48.622;9.230;2024-03-02T07:56:32;96893.03;;;5.72;77.81
8581;BME280;4328;48.622;9.230;2024-03-02T07:58:59;96904.34;;;5.82;77.68
8581;BME280;4328;48.622;9.230;2024-03-02T08:01:28;96905.16;;;6.12;77.51
8581;BME280;4328;48.622;9.230;2024-03-02T08:03:55;96900.22;;;6.16;76.91
8581;BME280;4328;48.622;9.230;2024-03-02T08:06:23;96893.25;;;6.22;76.57
8581;BME280;4328;48.622;9.230;2024-03-02T08:08:52;96892.06;;;6.45;76.69
8581;BME280;4328;48.622;9.230;2024-03-02T08:11:19;96883.94;;;6.88;75.57
8581;BME280;4328;48.622;9.230;2024-03-02T08:13:46;96881.13;;;7.58;74.03
8581;BME280;4328;48.622;9.230;2024-03-02T08:16:12;96879.22;;;7.87;71.29
8581;BME280;4328;48.622;9.230;2024-03-02T08:18:40;96882.75;;;8.35;70.60
8581;BME280;4328;48.622;9.230;2024-03-02T08:21:07;96871.19;;;9.20;69.49
8581;BME280;4328;48.622;9.230;2024-03-02T08:23:34;96851.44;;;11.05;64.43
8581;BME280;4328;48.622;9.230;2024-03-02T08:26:01;96848.44;;;13.65;59.06
8581;BME280;4328;48.622;9.230;2024-03-02T08:28:28;96839.41;;;16.24;53.68
8581;BME280;4328;48.622;9.230;2024-03-02T08:30:54;96831.91;;;17.49;48.61
8581;BME280;4328;48.622;9.230;2024-03-02T08:33:22;96838.03;;;17.61;47.34
8581;BME280;4328;48.622;9.230;2024-03-02T08:35:50;96839.22;;;17.38;47.74
8581;BME280;4328;48.622;9.230;2024-03-02T08:38:17;96836.25;;;17.08;47.84
8581;BME280;4328;48.622;9.230;2024-03-02T08:40:44;96837.25;;;18.02;47.13
8581;BME280;4328;48.622;9.230;2024-03-02T08:43:10;96831.56;;;19.12;44.54
8581;BME280;4328;48.622;9.230;2024-03-02T08:45:37;96828.75;;;20.18;42.35
8581;BME280;4328;48.622;9.230;2024-03-02T08:48:06;96830.75;;;21.16;41.25
8581;BME280;4328;48.622;9.230;2024-03-02T08:50:33;96827.34;;;22.26;39.85
8581;BME280;4328;48.622;9.230;2024-03-02T08:53:02;96830.97;;;22.46;38.46
8581;BME280;4328;48.622;9.230;2024-03-02T08:55:28;96823.75;;;21.68;39.29
8581;BME280;4328;48.622;9.230;2024-03-02T08:57:55;96827.78;;;22.33;39.26
8581;BME280;4328;48.622;9.230;2024-03-02T09:00:22;96823.47;;;24.29;36.46
8581;BME280;4328;48.622;9.230;2024-03-02T09:02:49;96830.81;;;24.33;35.69
8581;BME280;4328;48.622;9.230;2024-03-02T09:05:16;96815.72;;;25.97;34.50
8581;BME280;4328;48.622;9.230;2024-03-02T09:07:42;96825.50;;;26.56;33.10
8581;BME280;4328;48.622;9.230;2024-03-02T09:10:10;96812.91;;;26.50;33.40
8581;BME280;4328;48.622;9.230;2024-03-02T09:12:37;96811.84;;;26.29;33.31
8581;BME280;4328;48.622;9.230;2024-03-02T09:15:05;96827.00;;;27.19;32.19
8581;BME280;4328;48.622;9.230;2024-03-02T09:17:32;96812.44;;;27.31;31.87
8581;BME280;4328;48.622;9.230;2024-03-02T09:19:59;96814.66;;;28.15;31.85
8581;BME280;4328;48.622;9.230;2024-03-02T09:22:25;96828.28;;;26.56;31.71
8581;BME280;4328;48.622;9.230;2024-03-02T09:24:52;96821.25;;;25.88;33.27
8581;BME280;4328;48.622;9.230;2024-03-02T09:27:20;96819.66;;;27.23;31.96
8581;BME280;4328;48.622;9.230;2024-03-02T09:29:46;96814.72;;;29.33;29.64
8581;BME280;4328;48.622;9.230;2024-03-02T09:32:13;96808.78;;;31.27;28.06
8581;BME280;4328;48.622;9.230;2024-03-02T09:34:40;96806.63;;;32.48;26.26
8581;BME280;4328;48.622;9.230;2024-03-02T09:37:06;96801.78;;;32.17;26.12
8581;BME280;4328;48.622;9.230;2024-03-02T09:39:33;96807.91;;;32.82;25.12
8581;BME280;4328;48.622;9.230;2024-03-02T09:42:00;96802.28;;;33.67;24.12
8581;BME280;4328;48.622;9.230;2024-03-02T09:44:29;96799.91;;;33.69;24.72
8581;BME280;4328;48.622;9.230;2024-03-02T09:46:56;96792.81;;;35.05;23.84
8581;BME280;4328;48.622;9.230;2024-03-02T09:49:23;96788.38;;;34.78;23.25
8581;BME280;4328;48.622;9.230;2024-03-02T09:51:49;96786.78;;;35.07;23.02
8581;BME280;4328;48.622;9.230;2024-03-02T09:54:16;96750.31;;;34.65;23.66
8581;BME280;4328;48.622;9.230;2024-03-02T09:56:43;96776.28;;;35.27;22.89
8581;BME280;4328;48.622;9.230;2024-03-02T09:59:10;96779.50;;;35.29;22.66
8581;BME280;4328;48.622;9.230;2024-03-02T10:01:40;96775.59;;;35.37;23.15
8581;BME280;4328;48.622;9.230;2024-03-02T10:04:06;96763.31;;;36.60;22.29
8581;BME280;4328;48.622;9.230;2024-03-02T10:06:33;96765.06;;;37.22;21.58
8581;BME280;4328;48.622;9.230;2024-03-02T10:08:59;96765.91;;;38.17;21.56
8581;BME280;4328;48.622;9.230;2024-03-02T10:11:27;96759.94;;;38.57;20.76
8581;BME280;4328;48.622;9.230;2024-03-02T10:14:07;96764.31;;;38.26;20.02
8581;BME280;4328;48.622;9.230;2024-03-02T10:16:35;96765.53;;;38.18;19.69
8581;BME280;4328;48.622;9.230;2024-03-02T10:19:16;96763.28;;;37.62;20.94
8581;BME280;4328;48.622;9.230;2024-03-02T10:21:44;96756.22;;;37.28;21.15
8581;BME280;4328;48.622;9.230;2024-03-02T10:24:10;96756.31;;;38.82;20.02
8581;BME280;4328;48.622;9.230;2024-03-02T10:26:38;96759.06;;;38.39;20.00
8581;BME280;4328;48.622;9.230;2024-03-02T10:29:04;96732.78;;;39.20;19.48
8581;BME280;4328;48.622;9.230;2024-03-02T10:31:31;96744.09;;;39.34;19.78
8581;BME280;4328;48.622;9.230;2024-03-02T10:33:59;96754.28;;;38.93;19.12
8581;BME280;4328;48.622;9.230;2024-03-02T10:36:28;96750.84;;;34.97;22.15
8581;BME280;4328;48.622;9.230;2024-03-02T10:38:56;96749.03;;;35.11;21.94
8581;BME280;4328;48.622;9.230;2024-03-02T10:41:26;96739.66;;;37.30;20.77
8581;BME280;4328;48.622;9.230;2024-03-02T10:43:53;96724.69;;;39.08;19.21
8581;BME280;4328;48.622;9.230;2024-03-02T10:46:27;96743.81;;;34.61;21.87
8581;BME280;4328;48.622;9.230;2024-03-02T10:48:55;96745.88;;;31.92;24.04
8581;BME280;4328;48.622;9.230;2024-03-02T10:51:21;96727.41;;;35.19;22.26
8581;BME280;4328;48.622;9.230;2024-03-02T10:53:49;96730.09;;;33.71;22.77
8581;BME280;4328;48.622;9.230;2024-03-02T10:56:21;96709.66;;;36.56;21.73
8581;BME280;4328;48.622;9.230;2024-03-02T10:58:55;96717.78;;;37.19;21.00
8581;BME280;4328;48.622;9.230;2024-03-02T11:01:27;96721.72;;;37.08;20.91
8581;BME280;4328;48.622;9.230;2024-03-02T11:03:56;96693.19;;;36.21;21.82
8581;BME280;4328;48.622;9.230;2024-03-02T11:06:23;96697.69;;;36.73;21.63
8581;BME280;4328;48.622;9.230;2024-03-02T11:08:55;96693.50;;;36.09;21.51
8581;BME280;4328;48.622;9.230;2024-03-02T11:11:30;96670.41;;;33.78;22.67
8581;BME280;4328;48.622;9.230;2024-03-02T11:14:01;96691.28;;;34.72;22.29
8581;BME280;4328;48.622;9.230;2024-03-02T11:16:35;96691.84;;;33.67;23.08
8581;BME280;4328;48.622;9.230;2024-03-02T11:19:04;96688.34;;;34.88;22.45
8581;BME280;4328;48.622;9.230;2024-03-02T11:21:32;96687.00;;;37.07;21.10
8581;BME280;4328;48.622;9.230;2024-03-02T11:24:00;96684.22;;;37.11;20.58
8581;BME280;4328;48.622;9.230;2024-03-02T11:26:28;96678.63;;;36.63;21.48
8581;BME280;4328;48.622;9.230;2024-03-02T11:28:54;96683.22;;;36.31;21.56
8581;BME280;4328;48.622;9.230;2024-03-02T11:31:22;96678.94;;;37.09;20.60
8581;BME280;4328;48.622;9.230;2024-03-02T11:33:48;96672.44;;;37.85;20.68
8581;BME280;4328;48.622;9.230;2024-03-02T11:36:15;96628.91;;;34.96;21.96
8581;BME280;4328;48.622;9.230;2024-03-02T11:38:43;96658.22;;;36.84;21.02
8581;BME280;4328;48.622;9.230;2024-03-02T11:41:12;96651.41;;;36.34;21.13
8581;BME280;4328;48.622;9.230;2024-03-02T11:43:40;96649.69;;;37.49;20.24
8581;BME280;4328;48.622;9.230;2024-03-02T11:46:10;96642.97;;;36.92;20.79
8581;BME280;4328;48.622;9.230;2024-03-02T11:48:39;96642.69;;;35.01;21.97
8581;BME280;4328;48.622;9.230;2024-03-02T11:51:06;96630.47;;;35.57;22.08
8581;BME280;4328;48.622;9.230;2024-03-02T11:53:33;96634.94;;;33.93;21.87
8581;BME280;4328;48.622;9.230;2024-03-02T11:56:02;96631.53;;;33.42;22.75
8581;BME280;4328;48.622;9.230;2024-03-02T11:58:33;96620.38;;;34.63;21.82
8581;BME280;4328;48.622;9.230;2024-03-02T12:01:02;96620.69;;;32.16;23.55
8581;BME280;4328;48.622;9.230;2024-03-02T12:03:28;96624.78;;;30.11;25.52
8581;BME280;4328;48.622;9.230;2024-03-02T12:05:55;96624.19;;;29.81;25.69
8581;BME280;4328;48.622;9.230;2024-03-02T12:08:22;96613.84;;;30.82;25.60
8581;BME280;4328;48.622;9.230;2024-03-02T12:10:58;96609.03;;;32.29;24.98
8581;BME280;4328;48.622;9.230;2024-03-02T12:13:26;96590.97;;;32.81;23.58
8581;BME280;4328;48.622;9.230;2024-03-02T12:15:55;96609.47;;;33.63;22.96
8581;BME280;4328;48.622;9.230;2024-03-02T12:18:22;96598.56;;;33.81;23.92
8581;BME280;4328;48.622;9.230;2024-03-02T12:20:49;96588.56;;;34.59;22.81
8581;BME280;4328;48.622;9.230;2024-03-02T12:23:18;96592.41;;;34.47;22.37
8581;BME280;4328;48.622;9.230;2024-03-02T12:25:45;96586.66;;;36.07;21.10
8581;BME280;4328;48.622;9.230;2024-03-02T12:28:12;96579.66;;;33.35;22.17
8581;BME280;4328;48.622;9.230;2024-03-02T12:30:39;96579.41;;;34.65;21.78
8581;BME280;4328;48.622;9.230;2024-03-02T12:33:07;96575.00;;;35.28;21.64
8581;BME280;4328;48.622;9.230;2024-03-02T12:35:33;96569.59;;;35.53;21.19
8581;BME280;4328;48.622;9.230;2024-03-02T12:38:00;96568.63;;;36.77;20.51
8581;BME280;4328;48.622;9.230;2024-03-02T12:40:26;96565.72;;;34.11;21.68
8581;BME280;4328;48.622;9.230;2024-03-02T12:42:53;96567.25;;;33.82;22.25
8581;BME280;4328;48.622;9.230;2024-03-02T12:45:20;96558.19;;;32.15;23.01
8581;BME280;4328;48.622;9.230;2024-03-02T12:47:49;96564.75;;;37.17;20.08
8581;BME280;4328;48.622;9.230;2024-03-02T12:50:17;96549.16;;;38.37;18.83
8581;BME280;4328;48.622;9.230;2024-03-02T12:52:44;96557.53;;;37.16;19.28
8581;BME280;4328;48.622;9.230;2024-03-02T12:55:17;96552.28;;;37.22;19.22
8581;BME280;4328;48.622;9.230;2024-03-02T12:57:43;96548.53;;;35.36;20.05
8581;BME280;4328;48.622;9.230;2024-03-02T13:00:10;96546.84;;;33.40;21.12
8581;BME280;4328;48.622;9.230;2024-03-02T13:02:40;96551.72;;;35.01;20.70
8581;BME280;4328;48.622;9.230;2024-03-02T13:05:07;96539.97;;;34.95;20.49
8581;BME280;4328;48.622;9.230;2024-03-02T13:07:38;96551.41;;;32.16;21.96
8581;BME280;4328;48.622;9.230;2024-03-02T13:10:05;96548.06;;;33.65;20.71
8581;BME280;4328;48.622;9.230;2024-03-02T13:12:32;96543.53;;;33.15;21.81
8581;BME280;4328;48.622;9.230;2024-03-02T13:14:59;96536.78;;;35.71;19.83
8581;BME280;4328;48.622;9.230;2024-03-02T13:17:27;96529.78;;;38.14;18.53
8581;BME280;4328;48.622;9.230;2024-03-02T13:19:55;96531.25;;;36.33;18.52
8581;BME280;4328;48.622;9.230;2024-03-02T13:22:23;96530.50;;;36.43;18.89
8581;BME280;4328;48.622;9.230;2024-03-02T13:24:51;96532.19;;;35.19;19.80
8581;BME280;4328;48.622;9.230;2024-03-02T13:27:19;96522.19;;;36.71;19.12